Bookmark and Share
Track history (hours):
 

OOCL Oakland

Last reported at 2014-Apr-20 22:30 UTC. Time now 2014-Apr-21 04:50 UTC.
Position N 31°28' E 031°45'.

Length 280 m; draft 11.6 m.

Type: Ship. MMSI: 372703235.

NotesDate/timePositionNaut miles runAvg speedWind from/ knotsBaromVisibWave heightAir tempDewpointWater temp
2014-Apr-20 22:30N 31°28' E 031°45'0 0.0
2014-Apr-20 21:30N 31°28' E 031°45'0 0.0
2014-Apr-20 20:30N 31°28' E 031°45'0 0.0
2014-Apr-20 19:33N 31°28' E 031°45'0 0.0
2014-Apr-20 18:33N 31°28' E 031°45'0 0.0
2014-Apr-20 17:15N 31°28' E 031°45'0 0.0
2014-Apr-20 15:24N 31°28' E 031°45'0 0.0
2014-Apr-20 14:09N 31°28' E 031°45'0 0.0
2014-Apr-20 13:33N 31°28' E 031°45'0 0.0
2014-Apr-20 12:31N 31°28' E 031°45'12 6.0
2014-Apr-20 10:33N 31°39' E 031°46'4 2.9
2014-Apr-20 09:07N 31°42' E 031°42'0 0.0
2014-Apr-20 06:10N 31°42' E 031°42'  
2014-Apr-17 14:34N 36°28' E 014°26'2020.0
2014-Apr-17 13:33N 36°36' E 014°03'2020.3
2014-Apr-17 12:34N 36°46' E 013°41'23719.7
2014-Apr-17 00:33N 38°56' E 009°31'2019.3
2014-Apr-16 23:33N 39°05' E 009°09'8 8.0
2014-Apr-16 22:32N 39°13' E 009°04'0 0.1
2014-Apr-16 21:31N 39°13' E 009°05'0 0.0
2014-Apr-16 20:31N 39°13' E 009°05'0 0.0
2014-Apr-16 19:31N 39°13' E 009°05'0 0.0
2014-Apr-16 18:28N 39°13' E 009°05'0 0.0
2014-Apr-16 17:31N 39°13' E 009°05'0 0.0
2014-Apr-16 16:31N 39°13' E 009°05'0 0.0
2014-Apr-16 15:31N 39°13' E 009°05'0 0.0
2014-Apr-16 14:31N 39°13' E 009°05'0 0.0
2014-Apr-16 13:28N 39°13' E 009°05'0 0.0
2014-Apr-16 12:31N 39°13' E 009°05'0 0.0
2014-Apr-16 11:31N 39°13' E 009°05'0 0.0
2014-Apr-16 10:31N 39°13' E 009°05'0 0.0
2014-Apr-16 09:31N 39°13' E 009°05'0 0.0
2014-Apr-16 08:31N 39°13' E 009°05'0 0.0
2014-Apr-16 07:31N 39°13' E 009°05'0 0.0
2014-Apr-16 06:31N 39°13' E 009°05'0 0.0
2014-Apr-16 05:31N 39°13' E 009°05'1 0.9
2014-Apr-16 04:32N 39°12' E 009°05'6 6.3
2014-Apr-16 03:33N 39°06' E 009°07'8 8.1
2014-Apr-16 02:32N 38°58' E 009°09'1312.8
2014-Apr-16 01:33N 38°47' E 009°01'1716.9
2014-Apr-16 00:33N 38°39' E 008°41'8617.2
2014-Apr-15 19:33N 38°16' E 006°56'9318.6
2014-Apr-15 14:31N 37°53' E 005°01'10815.6
2014-Apr-15 07:34N 37°26' E 002°48'1919.1
2014-Apr-15 06:33N 37°20' E 002°25'7819.6
2014-Apr-15 02:34N 37°01' E 000°50'2119.8
2014-Apr-15 01:30N 36°55' E 000°25'1819.4
2014-Apr-15 00:33N 36°50' E 000°02'25819.8
2014-Apr-14 11:33N 35°60' W 005°11'3718.6
2014-Apr-14 09:34N 35°54' W 005°57'22320.2
2014-Apr-13 22:32N 36°47' W 010°26'2020.0
2014-Apr-13 21:32N 36°53' W 010°50'2120.1
2014-Apr-13 20:30N 36°59' W 011°14'1920.0
2014-Apr-13 19:33N 37°04' W 011°37'78519.4
2014-Apr-12 03:08N 40°16' W 027°52'2019.5
2014-Apr-12 02:06N 40°20' W 028°18'1519.4
2014-Apr-12 01:20N 40°23' W 028°37'1619.7
2014-Apr-12 00:31N 40°26' W 028°58'2719.9
2014-Apr-11 23:10N 40°31' W 029°33'1420.1
2014-Apr-11 22:27N 40°34' W 029°51'  

Dump ship's entire track history

sailing weather and tide predictions

OOCL Oakland — 3EKJ6 — position and weather